createdAt,value
2023-03-06T00:02:09.344Z,3.70
2023-03-06T00:14:26.686Z,2.60
2023-03-06T00:17:12.860Z,4.70
2023-03-06T00:19:58.269Z,3.10
2023-03-06T00:22:43.641Z,2.80
2023-03-06T00:25:28.749Z,3.70
2023-03-06T00:30:52.770Z,3.50
2023-03-06T00:33:39.468Z,1.60
2023-03-06T00:36:25.471Z,2.50
2023-03-06T00:39:12.206Z,1.10
2023-03-06T00:41:58.909Z,2.30
2023-03-06T00:44:44.262Z,2.20
2023-03-06T00:47:29.422Z,1.80
2023-03-06T00:52:59.651Z,2.40
2023-03-06T00:55:45.023Z,3.20
2023-03-06T00:58:29.841Z,3.20
2023-03-06T01:01:14.908Z,2.80
2023-03-06T01:06:45.480Z,1.90
2023-03-06T01:12:15.591Z,2.70
2023-03-06T01:20:51.153Z,3.90
2023-03-06T01:23:36.373Z,2.80
2023-03-06T01:29:21.515Z,3.10
2023-03-06T01:34:52.059Z,2.10
2023-03-06T01:37:38.369Z,1.80
2023-03-06T01:40:23.614Z,2.50
2023-03-06T01:43:10.227Z,0.50
2023-03-06T01:46:17.453Z,1.20
2023-03-06T01:49:02.607Z,1.50
2023-03-06T01:52:01.155Z,2.40
2023-03-06T01:54:51.127Z,1.90
2023-03-06T01:57:42.653Z,4.70
2023-03-06T02:00:29.397Z,2.80
2023-03-06T02:03:26.715Z,4.50
2023-03-06T02:06:11.822Z,4.50
2023-03-06T02:11:50.227Z,4.90
2023-03-06T02:14:36.696Z,4.60
2023-03-06T02:17:23.326Z,9.90
2023-03-06T02:20:22.198Z,1.60
2023-03-06T02:23:23.112Z,3.20
2023-03-06T02:26:09.575Z,1.50
2023-03-06T02:32:54.704Z,5.40
2023-03-06T02:35:43.237Z,3.70
2023-03-06T02:38:36.654Z,4.50
2023-03-06T02:41:21.752Z,8.30
2023-03-06T02:50:01.475Z,6.70
2023-03-06T02:52:47.211Z,3.50
2023-03-06T02:55:33.307Z,4.40
2023-03-06T02:58:21.251Z,5.40
2023-03-06T03:03:59.420Z,6.50
2023-03-06T03:06:45.791Z,5.50
2023-03-06T03:09:36.553Z,5.60
2023-03-06T03:12:23.368Z,4.10
2023-03-06T03:18:02.552Z,3.50
2023-03-06T03:20:47.916Z,5.10
2023-03-06T03:23:33.232Z,5.20
2023-03-06T03:26:20.909Z,5.50
2023-03-06T03:29:06.043Z,2.40
2023-03-06T03:31:51.165Z,4.30
2023-03-06T03:34:36.217Z,6.40
2023-03-06T03:40:21.773Z,4.60
2023-03-06T03:46:00.751Z,5.10
2023-03-06T03:48:46.608Z,5.40
2023-03-06T03:51:32.928Z,4.80
2023-03-06T03:54:18.973Z,6.10
2023-03-06T03:57:05.348Z,5.80
2023-03-06T03:59:52.257Z,3.90
2023-03-06T04:02:37.500Z,5.30
2023-03-06T04:05:22.579Z,4.80
2023-03-06T04:08:07.635Z,2.20
2023-03-06T04:11:04.142Z,10.50
2023-03-06T04:13:49.858Z,10.10
2023-03-06T04:29:40.809Z,11.00
2023-03-06T04:32:26.162Z,4.80
2023-03-06T04:37:57.393Z,8.80
2023-03-06T04:40:44.550Z,8.80
2023-03-06T04:43:30.156Z,8.40
2023-03-06T04:46:17.436Z,3.10
2023-03-06T04:49:03.535Z,10.60
2023-03-06T04:51:48.587Z,8.30
2023-03-06T04:54:33.725Z,4.20
2023-03-06T04:57:18.829Z,6.20
2023-03-06T05:03:17.170Z,2.90
2023-03-06T05:11:33.782Z,8.20
2023-03-06T05:14:18.500Z,6.30
2023-03-06T05:17:08.424Z,6.60
2023-03-06T05:19:55.528Z,6.90
2023-03-06T05:25:49.539Z,7.90
2023-03-06T05:28:35.087Z,7.00
2023-03-06T05:31:20.598Z,5.10
2023-03-06T05:34:05.842Z,6.10
2023-03-06T05:36:50.620Z,6.60
2023-03-06T05:39:44.919Z,6.60
2023-03-06T05:42:31.335Z,7.40
2023-03-06T05:45:18.187Z,6.30
2023-03-06T05:48:04.162Z,6.40
2023-03-06T05:53:43.374Z,7.20
2023-03-06T05:56:29.364Z,8.60
2023-03-06T06:02:08.314Z,6.90
2023-03-06T06:08:20.128Z,5.70
2023-03-06T06:11:11.278Z,9.00
2023-03-06T06:13:57.092Z,8.90
2023-03-06T06:16:59.099Z,10.30
2023-03-06T06:19:44.570Z,7.00
2023-03-06T06:25:22.697Z,10.30
2023-03-06T06:28:08.697Z,9.30
2023-03-06T06:34:10.971Z,7.80
2023-03-06T06:36:55.935Z,9.50
2023-03-06T06:39:41.086Z,9.70
2023-03-06T06:46:53.303Z,10.10
2023-03-06T06:49:21.744Z,7.10
2023-03-06T06:52:07.412Z,7.80
2023-03-06T06:54:52.848Z,12.10
2023-03-06T06:57:40.388Z,10.20
2023-03-06T07:00:27.300Z,9.60
2023-03-06T07:03:13.793Z,10.00
2023-03-06T07:06:00.454Z,8.70
2023-03-06T07:08:46.261Z,11.20
2023-03-06T07:14:16.145Z,10.40
2023-03-06T07:17:18.861Z,13.60
2023-03-06T07:20:06.414Z,6.50
2023-03-06T07:22:52.060Z,8.90
2023-03-06T07:25:37.570Z,10.80
2023-03-06T07:28:23.053Z,8.90
2023-03-06T07:31:42.449Z,9.20
2023-03-06T07:34:27.976Z,7.60
2023-03-06T07:39:59.152Z,8.60
2023-03-06T07:42:45.005Z,10.40
2023-03-06T07:48:14.983Z,9.30
2023-03-06T07:51:06.238Z,8.80
2023-03-06T07:57:02.478Z,8.90
2023-03-06T07:59:47.394Z,9.10
2023-03-06T08:05:19.170Z,8.50
2023-03-06T08:08:14.714Z,9.20
2023-03-06T08:11:01.043Z,7.20
2023-03-06T08:13:48.174Z,4.50
2023-03-06T08:16:33.872Z,8.10
2023-03-06T08:19:18.761Z,3.50
2023-03-06T08:24:57.262Z,3.40
2023-03-06T08:27:43.532Z,9.60
2023-03-06T08:30:30.282Z,9.30
2023-03-06T08:33:17.313Z,8.20
2023-03-06T08:36:02.889Z,5.70
2023-03-06T08:38:48.061Z,11.20
2023-03-06T08:41:34.197Z,27.50
2023-03-06T08:44:19.479Z,11.70
2023-03-06T08:49:54.216Z,8.10
2023-03-06T08:55:38.838Z,6.90
2023-03-06T08:58:23.976Z,7.60
2023-03-06T09:04:24.637Z,8.80
2023-03-06T09:10:27.746Z,4.80
2023-03-06T09:13:14.445Z,8.00
2023-03-06T09:31:31.891Z,7.50
2023-03-06T09:34:17.662Z,5.10
2023-03-06T09:40:32.990Z,7.60
2023-03-06T09:43:25.194Z,7.90
2023-03-06T09:46:27.242Z,8.10
2023-03-06T09:49:41.999Z,6.30
2023-03-06T09:52:58.097Z,7.10
2023-03-06T10:01:29.582Z,6.70
2023-03-06T10:04:29.060Z,6.40
2023-03-06T10:07:20.938Z,7.20
2023-03-06T10:13:03.466Z,7.00
2023-03-06T10:25:22.741Z,5.90
2023-03-06T10:34:53.856Z,9.90
2023-03-06T10:40:55.233Z,7.10
2023-03-06T10:46:53.529Z,7.60
2023-03-06T10:49:39.072Z,6.30
2023-03-06T10:52:32.478Z,6.30
2023-03-06T10:55:29.815Z,6.60
2023-03-06T11:01:07.711Z,5.20
2023-03-06T11:10:23.157Z,6.60
2023-03-06T11:13:26.116Z,6.20
2023-03-06T11:16:29.877Z,6.60
2023-03-06T11:19:27.572Z,7.80
2023-03-06T11:22:18.187Z,7.20
2023-03-06T11:25:03.727Z,9.00
2023-03-06T11:28:02.025Z,6.80
2023-03-06T11:30:52.262Z,7.90
2023-03-06T11:34:09.175Z,7.20
2023-03-06T11:37:30.778Z,7.90
2023-03-06T11:43:29.275Z,8.30
2023-03-06T11:46:25.719Z,8.90
2023-03-06T11:49:28.504Z,7.00
2023-03-06T11:54:57.464Z,7.00
2023-03-06T11:58:11.582Z,8.20
2023-03-06T12:01:32.196Z,10.40
2023-03-06T12:04:39.339Z,10.90
2023-03-06T12:07:35.339Z,8.10
2023-03-06T12:10:38.115Z,6.80
2023-03-06T12:13:27.154Z,4.90
2023-03-06T12:16:27.772Z,7.10
2023-03-06T12:19:28.070Z,5.70
2023-03-06T12:22:40.607Z,5.90
2023-03-06T12:25:34.477Z,6.40
2023-03-06T12:28:27.434Z,6.70
2023-03-06T12:31:30.690Z,5.00
2023-03-06T12:37:15.791Z,6.80
2023-03-06T12:40:00.945Z,6.10
2023-03-06T12:42:49.562Z,6.70
2023-03-06T12:45:39.255Z,6.30
2023-03-06T12:48:28.815Z,6.50
2023-03-06T12:51:21.187Z,7.20
2023-03-06T12:54:12.614Z,5.60
2023-03-06T12:56:59.803Z,6.30
2023-03-06T12:59:47.412Z,6.10
2023-03-06T13:03:04.968Z,6.30
2023-03-06T13:06:24.281Z,9.70
2023-03-06T13:09:28.981Z,17.00
2023-03-06T13:12:34.808Z,8.80
2023-03-06T13:15:28.779Z,8.30
2023-03-06T13:18:23.370Z,6.80
2023-03-06T13:21:45.506Z,6.70
2023-03-06T13:24:33.635Z,5.90
2023-03-06T13:27:44.553Z,3.70
2023-03-06T13:30:38.289Z,6.20
2023-03-06T13:33:24.376Z,5.60
2023-03-06T13:36:34.252Z,6.00
2023-03-06T13:39:19.574Z,6.20
2023-03-06T13:42:06.482Z,3.70
2023-03-06T13:45:16.834Z,5.90
2023-03-06T13:48:33.881Z,3.90
2023-03-06T13:51:22.984Z,5.60
2023-03-06T13:54:17.152Z,5.70
2023-03-06T13:57:08.057Z,6.30
2023-03-06T14:00:18.463Z,7.10
2023-03-06T14:03:21.969Z,6.30
2023-03-06T14:06:34.874Z,7.80
2023-03-06T14:12:40.256Z,8.00
2023-03-06T14:15:30.946Z,7.20
2023-03-06T14:18:23.863Z,6.90
2023-03-06T14:21:15.322Z,6.40
2023-03-06T14:24:03.522Z,7.30
2023-03-06T14:29:29.596Z,8.00
2023-03-06T14:32:22.842Z,8.00
2023-03-06T14:35:29.539Z,7.30
2023-03-06T14:38:15.635Z,7.70
2023-03-06T14:41:02.210Z,7.80
2023-03-06T14:47:25.631Z,18.50
2023-03-06T14:50:22.506Z,9.00
2023-03-06T14:53:16.991Z,7.40
2023-03-06T14:56:06.485Z,6.50
2023-03-06T14:58:59.606Z,7.40
2023-03-06T15:01:50.318Z,7.30
2023-03-06T15:04:40.604Z,8.70
2023-03-06T15:07:30.017Z,8.40
2023-03-06T15:10:28.816Z,6.70
2023-03-06T15:13:22.399Z,7.20
2023-03-06T15:16:24.190Z,7.50
2023-03-06T15:19:20.693Z,6.50
2023-03-06T15:22:24.811Z,6.80
2023-03-06T15:25:29.876Z,6.80
2023-03-06T15:28:32.660Z,7.70
2023-03-06T15:31:24.388Z,10.00
2023-03-06T15:34:09.770Z,9.20
2023-03-06T15:36:58.176Z,8.40
2023-03-06T15:39:43.504Z,7.50
2023-03-06T15:42:34.053Z,8.30
2023-03-06T15:45:22.073Z,8.50
2023-03-06T15:48:16.257Z,9.30
2023-03-06T15:51:02.317Z,7.50
2023-03-06T15:53:47.655Z,8.10
2023-03-06T15:56:36.804Z,7.90
2023-03-06T15:59:25.440Z,8.40
2023-03-06T16:02:15.200Z,9.10
2023-03-06T16:05:01.881Z,9.10
2023-03-06T16:07:48.087Z,9.30
2023-03-06T16:10:37.277Z,8.80
2023-03-06T16:13:28.153Z,8.20
2023-03-06T16:16:21.548Z,8.40
2023-03-06T16:22:02.013Z,7.90
2023-03-06T16:24:47.290Z,8.60
2023-03-06T16:30:28.642Z,8.50
2023-03-06T16:33:14.247Z,8.90
2023-03-06T16:38:58.315Z,9.50
2023-03-06T16:41:45.262Z,7.60
2023-03-06T16:44:30.183Z,8.30
2023-03-06T16:47:16.280Z,8.60
2023-03-06T16:50:02.809Z,6.80
2023-03-06T16:55:47.200Z,8.40
2023-03-06T16:58:32.243Z,7.90
2023-03-06T17:01:19.050Z,8.40
2023-03-06T17:06:49.284Z,11.30
2023-03-06T17:09:34.357Z,8.60
2023-03-06T17:12:19.431Z,8.80
2023-03-06T17:15:06.444Z,9.70
2023-03-06T17:17:52.677Z,9.00
2023-03-06T17:20:37.948Z,11.20
2023-03-06T17:23:31.470Z,10.80
2023-03-06T17:26:18.521Z,14.30
2023-03-06T17:29:05.940Z,10.70
2023-03-06T17:34:41.299Z,8.90
2023-03-06T17:37:26.235Z,9.80
2023-03-06T17:43:13.741Z,9.30
2023-03-06T17:46:10.502Z,8.90
2023-03-06T17:48:56.092Z,9.80
2023-03-06T17:58:08.031Z,10.30
2023-03-06T18:00:53.672Z,10.80
2023-03-06T18:06:49.940Z,9.50
2023-03-06T18:16:15.547Z,10.70
2023-03-06T18:19:00.984Z,8.50
2023-03-06T18:21:46.724Z,10.40
2023-03-06T18:24:31.652Z,10.30
2023-03-06T18:29:58.924Z,12.40
2023-03-06T18:33:01.957Z,13.50
2023-03-06T18:35:47.636Z,15.40
2023-03-06T18:42:06.102Z,13.60
2023-03-06T18:44:51.463Z,13.40
2023-03-06T18:47:36.787Z,12.50
2023-03-06T18:50:22.065Z,12.40
2023-03-06T18:53:07.650Z,13.70
2023-03-06T18:55:53.634Z,12.30
2023-03-06T18:58:38.912Z,9.40
2023-03-06T19:01:23.968Z,11.70
2023-03-06T19:04:09.645Z,14.30
2023-03-06T19:06:54.893Z,15.50
2023-03-06T19:09:42.153Z,14.70
2023-03-06T19:12:27.376Z,14.20
2023-03-06T19:15:12.422Z,12.30
2023-03-06T19:17:58.891Z,12.60
2023-03-06T19:24:02.419Z,10.90
2023-03-06T19:26:47.670Z,11.60
2023-03-06T19:29:32.789Z,10.50
2023-03-06T19:32:18.122Z,12.70
2023-03-06T19:38:11.974Z,10.50
2023-03-06T19:40:57.124Z,11.40
2023-03-06T19:43:43.068Z,12.20
2023-03-06T19:46:28.392Z,11.50
2023-03-06T19:49:16.257Z,11.80
2023-03-06T19:52:01.488Z,12.50
2023-03-06T19:57:48.697Z,12.60
2023-03-06T20:00:35.715Z,11.80
2023-03-06T20:03:22.243Z,10.50
2023-03-06T20:06:16.784Z,12.50
2023-03-06T20:12:02.608Z,12.10
2023-03-06T20:14:48.183Z,9.00
2023-03-06T20:17:34.058Z,10.70
2023-03-06T20:20:19.155Z,11.90
2023-03-06T20:23:04.204Z,12.70
2023-03-06T20:25:49.260Z,13.30
2023-03-06T20:31:23.694Z,14.00
2023-03-06T20:34:10.146Z,13.90
2023-03-06T20:36:57.200Z,14.20
2023-03-06T20:39:42.432Z,13.80
2023-03-06T20:46:03.513Z,15.30
2023-03-06T20:48:50.483Z,13.90
2023-03-06T20:54:26.231Z,13.70
2023-03-06T20:57:11.171Z,15.00
2023-03-06T20:59:56.392Z,14.90
2023-03-06T21:08:42.414Z,14.70
2023-03-06T21:14:28.732Z,14.80
2023-03-06T21:17:22.051Z,14.80
2023-03-06T21:20:09.147Z,16.40
2023-03-06T21:22:55.632Z,14.90
2023-03-06T21:31:58.737Z,17.30
2023-03-06T21:37:37.398Z,16.60
2023-03-06T21:40:22.886Z,16.30
2023-03-06T21:46:04.889Z,17.00
2023-03-06T21:48:52.378Z,16.20
2023-03-06T21:51:39.085Z,17.80
2023-03-06T21:54:26.204Z,16.10
2023-03-06T21:57:11.127Z,12.90
2023-03-06T21:59:56.271Z,15.50
2023-03-06T22:05:34.902Z,16.80
2023-03-06T22:08:20.847Z,16.90
2023-03-06T22:11:20.430Z,16.60
2023-03-06T22:14:06.124Z,16.00
2023-03-06T22:16:51.160Z,17.80
2023-03-06T22:19:35.993Z,17.30
2023-03-06T22:25:37.960Z,15.10
2023-03-06T22:31:48.009Z,14.70
2023-03-06T22:34:33.096Z,15.10
2023-03-06T22:37:50.856Z,15.40
2023-03-06T22:40:35.714Z,15.20
2023-03-06T22:46:05.219Z,15.40
2023-03-06T22:48:51.806Z,15.10
2023-03-06T22:54:31.113Z,16.90
2023-03-06T22:57:17.677Z,15.60
2023-03-06T23:00:26.191Z,12.90
2023-03-06T23:03:12.032Z,14.90
2023-03-06T23:05:57.277Z,15.00
2023-03-06T23:11:40.764Z,14.80
2023-03-06T23:14:25.756Z,14.60
2023-03-06T23:19:50.155Z,15.60
2023-03-06T23:25:48.369Z,18.70
2023-03-06T23:28:37.122Z,18.00
2023-03-06T23:31:28.039Z,11.80
2023-03-06T23:34:12.948Z,13.60
2023-03-06T23:36:58.026Z,16.20
2023-03-06T23:39:42.888Z,15.90
2023-03-06T23:45:36.924Z,16.90
2023-03-06T23:48:22.572Z,15.50
2023-03-06T23:51:13.902Z,16.80
2023-03-06T23:53:59.446Z,18.70
2023-03-06T23:56:44.650Z,20.10
2023-03-06T23:59:29.726Z,18.10
